createdAt,value
2019-05-15T00:00:28.888Z,1023.39
2019-05-15T00:01:08.683Z,1023.38
2019-05-15T00:01:48.870Z,1023.37
2019-05-15T00:02:29.078Z,1023.4
2019-05-15T00:03:09.657Z,1023.39
2019-05-15T00:03:50.245Z,1023.33
2019-05-15T00:04:30.818Z,1023.33
2019-05-15T00:05:11.402Z,1023.36
2019-05-15T00:05:52.041Z,1023.33
2019-05-15T00:06:32.673Z,1023.32
2019-05-15T00:07:13.274Z,1023.34
2019-05-15T00:07:53.852Z,1023.34
2019-05-15T00:08:34.437Z,1023.31
2019-05-15T00:09:15.058Z,1023.33
2019-05-15T00:09:55.628Z,1023.34
2019-05-15T00:10:38.571Z,1023.37
2019-05-15T00:11:19.009Z,1023.33
2019-05-15T00:11:59.018Z,1023.31
2019-05-15T00:12:39.434Z,1023.29
2019-05-15T00:13:18.627Z,1023.31
2019-05-15T00:13:59.168Z,1023.31
2019-05-15T00:14:39.764Z,1023.37
2019-05-15T00:15:20.545Z,1023.32
2019-05-15T00:16:01.116Z,1023.31
2019-05-15T00:16:41.719Z,1023.31
2019-05-15T00:17:22.288Z,1023.32
2019-05-15T00:18:02.883Z,1023.3
2019-05-15T00:18:43.472Z,1023.3
2019-05-15T00:19:24.052Z,1023.3
2019-05-15T00:20:04.630Z,1023.3
2019-05-15T00:20:45.220Z,1023.28
2019-05-15T00:21:25.800Z,1023.29
2019-05-15T00:22:08.508Z,1023.29
2019-05-15T00:22:48.373Z,1023.27
2019-05-15T00:23:29.101Z,1023.31
2019-05-15T00:24:12.932Z,1023.27
2019-05-15T00:24:48.970Z,1023.26
2019-05-15T00:25:29.308Z,1023.28
2019-05-15T00:26:09.890Z,1023.23
2019-05-15T00:26:50.474Z,1023.27
2019-05-15T00:27:31.056Z,1023.22
2019-05-15T00:28:11.655Z,1023.26
2019-05-15T00:28:52.251Z,1023.25
2019-05-15T00:29:32.831Z,1023.28
2019-05-15T00:30:13.413Z,1023.27
2019-05-15T00:30:54.009Z,1023.27
2019-05-15T00:31:34.605Z,1023.26
2019-05-15T00:32:15.188Z,1023.31
2019-05-15T00:32:55.755Z,1023.26
2019-05-15T00:33:36.340Z,1023.26
2019-05-15T00:34:18.248Z,1023.29
2019-05-15T00:34:58.233Z,1023.26
2019-05-15T00:35:39.255Z,1023.25
2019-05-15T00:36:19.168Z,1023.3
2019-05-15T00:36:59.322Z,1023.26
2019-05-15T00:37:39.878Z,1023.27
2019-05-15T00:38:20.520Z,1023.27
2019-05-15T00:39:01.084Z,1023.25
2019-05-15T00:39:41.648Z,1023.25
2019-05-15T00:40:22.205Z,1023.28
2019-05-15T00:41:02.764Z,1023.3
2019-05-15T00:41:51.329Z,1023.25
2019-05-15T00:42:23.902Z,1023.28
2019-05-15T00:43:04.480Z,1023.29
2019-05-15T00:43:45.022Z,1023.26
2019-05-15T00:44:27.886Z,1023.3
2019-05-15T00:45:06.129Z,1023.28
2019-05-15T00:45:48.681Z,1023.26
2019-05-15T00:46:29.002Z,1023.24
2019-05-15T00:47:10.402Z,1023.28
2019-05-15T00:47:48.770Z,1023.24
2019-05-15T00:48:29.306Z,1023.25
2019-05-15T00:49:09.473Z,1023.2
2019-05-15T00:49:50.037Z,1023.27
2019-05-15T00:50:30.589Z,1023.18
2019-05-15T00:51:11.154Z,1023.24
2019-05-15T00:51:51.713Z,1023.25
2019-05-15T00:52:32.285Z,1023.24
2019-05-15T00:53:12.843Z,1023.3
2019-05-15T00:53:53.448Z,1023.27
2019-05-15T00:54:34.110Z,1023.28
2019-05-15T00:55:14.651Z,1023.29
2019-05-15T00:55:55.231Z,1023.32
2019-05-15T00:56:35.797Z,1023.3
2019-05-15T00:57:16.392Z,1023.28
2019-05-15T00:57:58.929Z,1023.27
2019-05-15T00:58:39.918Z,1023.29
2019-05-15T00:59:25.903Z,1023.27
2019-05-15T00:59:59.053Z,1023.28
2019-05-15T01:00:39.209Z,1023.33
2019-05-15T01:03:53.160Z,1023.27
2019-05-15T01:04:33.800Z,1023.22
2019-05-15T01:05:14.359Z,1023.24
2019-05-15T01:05:54.918Z,1023.19
2019-05-15T01:06:35.480Z,1023.26
2019-05-15T01:07:16.071Z,1023.22
2019-05-15T01:07:58.590Z,1023.2
2019-05-15T01:08:39.247Z,1023.24
2019-05-15T01:09:18.644Z,1023.17
2019-05-15T01:09:58.272Z,1023.22
2019-05-15T01:10:38.835Z,1023.17
2019-05-15T01:11:19.405Z,1023.16
2019-05-15T01:11:59.963Z,1023.18
2019-05-15T01:12:40.522Z,1023.18
2019-05-15T01:13:21.083Z,1023.14
2019-05-15T01:14:01.652Z,1023.14
2019-05-15T01:14:42.231Z,1023.12
2019-05-15T01:15:22.817Z,1023.13
2019-05-15T01:16:03.363Z,1023.12
2019-05-15T01:16:43.930Z,1023.11
2019-05-15T01:17:24.514Z,1023.08
2019-05-15T01:18:05.074Z,1023.1
2019-05-15T01:18:45.660Z,1023.08
2019-05-15T01:19:26.200Z,1023.11
2019-05-15T01:20:08.445Z,1023.1
2019-05-15T01:20:49.268Z,1023.05
2019-05-15T01:21:28.036Z,1023.03
2019-05-15T01:22:08.777Z,1023.03
2019-05-15T01:22:49.139Z,1023.02
2019-05-15T01:23:29.734Z,1023
2019-05-15T01:24:10.283Z,1023.03
2019-05-15T01:24:50.853Z,1023.04
2019-05-15T01:25:31.436Z,1023.03
2019-05-15T01:26:11.990Z,1023
2019-05-15T01:26:52.542Z,1023.01
2019-05-15T01:27:33.091Z,1022.99
2019-05-15T01:28:13.655Z,1022.98
2019-05-15T01:28:54.208Z,1023
2019-05-15T01:29:41.662Z,1022.98
2019-05-15T01:30:15.373Z,1022.99
2019-05-15T01:30:55.938Z,1022.96
2019-05-15T01:31:38.008Z,1023
2019-05-15T01:32:19.052Z,1022.93
2019-05-15T01:32:59.155Z,1022.94
2019-05-15T01:33:38.995Z,1022.96
2019-05-15T01:34:18.836Z,1022.98
2019-05-15T01:34:59.392Z,1022.92
2019-05-15T01:35:39.948Z,1022.95
2019-05-15T01:36:20.504Z,1022.91
2019-05-15T01:37:01.058Z,1022.97
2019-05-15T01:37:41.608Z,1022.94
2019-05-15T01:38:22.177Z,1022.95
2019-05-15T01:39:02.738Z,1022.91
2019-05-15T01:39:43.301Z,1022.98
2019-05-15T01:40:23.875Z,1022.96
2019-05-15T01:41:04.429Z,1022.95
2019-05-15T01:41:44.997Z,1022.91
2019-05-15T01:42:27.855Z,1022.93
2019-05-15T01:43:06.120Z,1022.88
2019-05-15T01:43:48.887Z,1022.9
2019-05-15T01:44:28.675Z,1022.87
2019-05-15T01:45:08.577Z,1022.91
2019-05-15T01:45:48.538Z,1022.84
2019-05-15T01:46:28.957Z,1022.83
2019-05-15T01:47:09.527Z,1022.88
2019-05-15T01:47:50.111Z,1022.84
2019-05-15T01:48:30.691Z,1022.9
2019-05-15T01:49:11.250Z,1022.83
2019-05-15T01:49:51.853Z,1022.91
2019-05-15T01:50:32.443Z,1022.88
2019-05-15T01:51:13.013Z,1022.88
2019-05-15T01:51:53.580Z,1022.89
2019-05-15T01:52:34.135Z,1022.84
2019-05-15T01:53:14.686Z,1022.88
2019-05-15T01:53:55.307Z,1022.85
2019-05-15T01:54:38.150Z,1022.87
2019-05-15T01:55:18.151Z,1022.84
2019-05-15T01:55:58.879Z,1022.85
2019-05-15T01:56:38.667Z,1022.86
2019-05-15T01:57:18.264Z,1022.83
2019-05-15T01:57:58.700Z,1022.76
2019-05-15T01:58:39.261Z,1022.82
2019-05-15T01:59:19.853Z,1022.8
2019-05-15T02:00:00.945Z,1022.77
2019-05-15T02:00:40.997Z,1022.8
2019-05-15T02:01:21.554Z,1022.79
2019-05-15T02:02:02.107Z,1022.76
2019-05-15T02:02:42.741Z,1022.77
2019-05-15T02:03:23.244Z,1022.76
2019-05-15T02:04:03.832Z,1022.77
2019-05-15T02:04:44.515Z,1022.76
2019-05-15T02:05:25.072Z,1022.76
2019-05-15T02:06:08.000Z,1022.76
2019-05-15T02:06:48.208Z,1022.76
2019-05-15T02:07:28.045Z,1022.77
2019-05-15T02:08:08.181Z,1022.75
2019-05-15T02:08:49.607Z,1022.75
2019-05-15T02:09:28.482Z,1022.72
2019-05-15T02:10:09.416Z,1022.73
2019-05-15T02:10:49.632Z,1022.79
2019-05-15T02:11:30.147Z,1022.74
2019-05-15T02:12:10.705Z,1022.72
2019-05-15T02:12:51.264Z,1022.74
2019-05-15T02:13:31.845Z,1022.7
2019-05-15T02:14:12.428Z,1022.69
2019-05-15T02:14:52.986Z,1022.71
2019-05-15T02:15:33.585Z,1022.69
2019-05-15T02:16:14.127Z,1022.66
2019-05-15T02:16:54.683Z,1022.71
2019-05-15T02:17:35.305Z,1022.67
2019-05-15T02:18:15.857Z,1022.65
2019-05-15T02:18:58.183Z,1022.64
2019-05-15T02:19:38.991Z,1022.64
2019-05-15T02:20:18.704Z,1022.69
2019-05-15T02:20:58.673Z,1022.66
2019-05-15T02:21:38.631Z,1022.72
2019-05-15T02:22:19.225Z,1022.71
2019-05-15T02:22:59.757Z,1022.67
2019-05-15T02:23:40.366Z,1022.71
2019-05-15T02:24:21.028Z,1022.67
2019-05-15T02:25:01.586Z,1022.67
2019-05-15T02:25:42.145Z,1022.66
2019-05-15T02:26:22.697Z,1022.65
2019-05-15T02:27:03.255Z,1022.63
2019-05-15T02:27:43.819Z,1022.65
2019-05-15T02:28:24.373Z,1022.62
2019-05-15T02:29:04.944Z,1022.57
2019-05-15T02:29:45.477Z,1022.6
2019-05-15T02:30:29.764Z,1022.59
2019-05-15T02:31:09.409Z,1022.59
2019-05-15T02:31:50.249Z,1022.58
2019-05-15T02:32:30.129Z,1022.6
2019-05-15T02:33:10.457Z,1022.61
2019-05-15T02:33:49.731Z,1022.63
2019-05-15T02:34:30.186Z,1022.62
2019-05-15T02:35:10.464Z,1022.6
2019-05-15T02:35:50.611Z,1022.58
2019-05-15T02:36:31.150Z,1022.54
2019-05-15T02:37:11.702Z,1022.57
2019-05-15T02:37:52.244Z,1022.59
2019-05-15T02:38:32.818Z,1022.54
2019-05-15T02:39:13.377Z,1022.54
2019-05-15T02:39:53.936Z,1022.51
2019-05-15T02:40:34.489Z,1022.53
2019-05-15T02:41:15.046Z,1022.55
2019-05-15T02:41:55.708Z,1022.55
2019-05-15T02:42:39.494Z,1022.54
2019-05-15T02:43:18.953Z,1022.57
2019-05-15T02:43:59.127Z,1022.55
2019-05-15T02:44:39.903Z,1022.57
2019-05-15T02:45:19.463Z,1022.61
2019-05-15T02:46:00.352Z,1022.58
2019-05-15T02:46:39.683Z,1022.56
2019-05-15T02:47:20.370Z,1022.58
2019-05-15T02:48:00.806Z,1022.61
2019-05-15T02:48:41.411Z,1022.58
2019-05-15T02:49:21.941Z,1022.64
2019-05-15T02:50:02.495Z,1022.6
2019-05-15T02:50:43.069Z,1022.57
2019-05-15T02:51:23.639Z,1022.58
2019-05-15T02:52:04.200Z,1022.56
2019-05-15T02:52:45.708Z,1022.61
2019-05-15T02:53:25.299Z,1022.61
2019-05-15T02:54:05.877Z,1022.59
2019-05-15T02:54:49.482Z,1022.58
2019-05-15T02:55:29.594Z,1022.59
2019-05-15T02:56:09.275Z,1022.62
2019-05-15T02:56:49.426Z,1022.61
2019-05-15T02:57:29.934Z,1022.62
2019-05-15T02:58:10.130Z,1022.6
2019-05-15T02:58:49.811Z,1022.61
2019-05-15T02:59:30.403Z,1022.62
2019-05-15T03:00:11.394Z,1022.61
2019-05-15T03:00:53.234Z,1022.61
2019-05-15T03:01:32.115Z,1022.65
2019-05-15T03:02:12.677Z,1022.62
2019-05-15T03:02:53.230Z,1022.6
2019-05-15T03:03:33.788Z,1022.59
2019-05-15T03:04:14.347Z,1022.6
2019-05-15T03:04:54.916Z,1022.61
2019-05-15T03:05:35.476Z,1022.63
2019-05-15T03:06:18.997Z,1022.61
2019-05-15T03:07:00.028Z,1022.6
2019-05-15T03:07:40.078Z,1022.6
2019-05-15T03:08:19.491Z,1022.59
2019-05-15T03:08:59.553Z,1022.6
2019-05-15T03:09:39.858Z,1022.58
2019-05-15T03:10:20.038Z,1022.58
2019-05-15T03:11:00.013Z,1022.62
2019-05-15T03:11:41.149Z,1022.61
2019-05-15T03:12:21.116Z,1022.59
2019-05-15T03:13:01.742Z,1022.6
2019-05-15T03:13:42.325Z,1022.59
2019-05-15T03:14:22.878Z,1022.59
2019-05-15T03:15:03.520Z,1022.6
2019-05-15T03:15:44.049Z,1022.6
2019-05-15T03:16:24.613Z,1022.61
2019-05-15T03:17:05.202Z,1022.64
2019-05-15T03:17:45.778Z,1022.62
2019-05-15T03:18:28.845Z,1022.58
2019-05-15T03:19:09.903Z,1022.61
2019-05-15T03:19:49.652Z,1022.61
2019-05-15T03:20:29.713Z,1022.59
2019-05-15T03:21:09.485Z,1022.62
2019-05-15T03:21:49.818Z,1022.66
2019-05-15T03:22:29.710Z,1022.61
2019-05-15T03:23:10.388Z,1022.66
2019-05-15T03:23:51.068Z,1022.62
2019-05-15T03:24:31.432Z,1022.62
2019-05-15T03:25:11.992Z,1022.57
2019-05-15T03:25:52.568Z,1022.6
2019-05-15T03:26:33.140Z,1022.6
2019-05-15T03:27:13.692Z,1022.58
2019-05-15T03:27:54.249Z,1022.62
2019-05-15T03:28:34.822Z,1022.59
2019-05-15T03:29:15.383Z,1022.57
2019-05-15T03:29:59.148Z,1022.58
2019-05-15T03:31:06.207Z,1022.57
2019-05-15T03:31:34.768Z,1022.6
2019-05-15T03:32:08.982Z,1022.59
2019-05-15T03:32:45.734Z,1022.56
2019-05-15T03:33:27.001Z,1022.56
2019-05-15T03:34:02.613Z,1022.58
2019-05-15T03:34:46.687Z,1022.56
2019-05-15T03:35:22.520Z,1022.57
2019-05-15T03:36:03.071Z,1022.57
2019-05-15T03:36:44.922Z,1022.59
2019-05-15T03:37:22.874Z,1022.62
2019-05-15T03:38:02.792Z,1022.58
2019-05-15T03:38:43.362Z,1022.58
2019-05-15T03:39:24.028Z,1022.56
2019-05-15T03:40:04.629Z,1022.58
2019-05-15T03:40:45.188Z,1022.53
2019-05-15T03:41:25.757Z,1022.55
2019-05-15T03:42:09.430Z,1022.58
2019-05-15T03:42:49.429Z,1022.54
2019-05-15T03:43:29.166Z,1022.53
2019-05-15T03:44:09.408Z,1022.53
2019-05-15T03:44:50.100Z,1022.55
2019-05-15T03:45:29.798Z,1022.56
2019-05-15T03:46:09.720Z,1022.59
2019-05-15T03:46:50.289Z,1022.56
2019-05-15T03:47:30.846Z,1022.55
2019-05-15T03:48:11.422Z,1022.61
2019-05-15T03:48:51.980Z,1022.56
2019-05-15T03:49:32.542Z,1022.56
2019-05-15T03:50:13.162Z,1022.53
2019-05-15T03:50:53.723Z,1022.54
2019-05-15T03:51:34.283Z,1022.51
2019-05-15T03:52:14.893Z,1022.49
2019-05-15T03:52:58.637Z,1022.52
2019-05-15T03:53:39.523Z,1022.5
2019-05-15T03:54:18.873Z,1022.52
2019-05-15T03:54:58.783Z,1022.52
2019-05-15T03:55:40.326Z,1022.54
2019-05-15T03:56:19.035Z,1022.52
2019-05-15T03:56:58.997Z,1022.55
2019-05-15T03:57:40.157Z,1022.54
2019-05-15T03:58:21.361Z,1022.54
2019-05-15T03:59:00.651Z,1022.53
2019-05-15T03:59:41.211Z,1022.54
2019-05-15T04:00:21.788Z,1022.51
2019-05-15T04:01:02.358Z,1022.54
2019-05-15T04:01:43.724Z,1022.51
2019-05-15T04:02:23.585Z,1022.5
2019-05-15T04:03:04.187Z,1022.54
2019-05-15T04:03:44.763Z,1022.52
2019-05-15T04:04:25.331Z,1022.55
2019-05-15T04:05:05.903Z,1022.55
2019-05-15T04:05:49.306Z,1022.57
2019-05-15T04:06:29.752Z,1022.54
2019-05-15T04:07:09.201Z,1022.55
2019-05-15T04:07:49.590Z,1022.54
2019-05-15T04:08:29.831Z,1022.54
2019-05-15T04:09:09.735Z,1022.55
2019-05-15T04:09:49.870Z,1022.53
2019-05-15T04:10:30.450Z,1022.51
2019-05-15T04:11:11.009Z,1022.56
2019-05-15T04:11:51.566Z,1022.53
2019-05-15T04:12:32.149Z,1022.56
2019-05-15T04:13:12.717Z,1022.51
2019-05-15T04:13:53.296Z,1022.53
2019-05-15T04:14:33.843Z,1022.53
2019-05-15T04:15:14.416Z,1022.57
2019-05-15T04:15:54.990Z,1022.52
2019-05-15T04:16:38.736Z,1022.51
2019-05-15T04:17:19.497Z,1022.51
2019-05-15T04:17:59.985Z,1022.56
2019-05-15T04:18:39.537Z,1022.54
2019-05-15T04:19:19.063Z,1022.54
2019-05-15T04:19:58.967Z,1022.52
2019-05-15T04:20:40.305Z,1022.51
2019-05-15T04:21:20.138Z,1022.53
2019-05-15T04:22:00.309Z,1022.55
2019-05-15T04:22:40.778Z,1022.5
2019-05-15T04:23:21.253Z,1022.5
2019-05-15T04:24:01.803Z,1022.49
2019-05-15T04:24:42.359Z,1022.52
2019-05-15T04:25:22.923Z,1022.51
2019-05-15T04:26:03.494Z,1022.52
2019-05-15T04:26:44.054Z,1022.55
2019-05-15T04:27:24.607Z,1022.5
2019-05-15T04:28:05.160Z,1022.45
2019-05-15T04:28:49.168Z,1022.47
2019-05-15T04:29:28.889Z,1022.46
2019-05-15T04:30:10.134Z,1022.44
2019-05-15T04:30:49.446Z,1022.47
2019-05-15T04:31:31.678Z,1022.45
2019-05-15T04:32:10.449Z,1022.43
2019-05-15T04:32:49.160Z,1022.43
2019-05-15T04:33:29.872Z,1022.4
2019-05-15T04:34:10.275Z,1022.38
2019-05-15T04:34:50.852Z,1022.38
2019-05-15T04:35:31.432Z,1022.4
2019-05-15T04:36:12.000Z,1022.4
2019-05-15T04:36:52.558Z,1022.38
2019-05-15T04:37:33.148Z,1022.31
2019-05-15T04:38:13.720Z,1022.32
2019-05-15T04:38:54.287Z,1022.37
2019-05-15T04:39:34.841Z,1022.36
2019-05-15T04:40:15.396Z,1022.34
2019-05-15T04:40:58.858Z,1022.35
2019-05-15T04:41:39.218Z,1022.36
2019-05-15T04:42:19.998Z,1022.42
2019-05-15T04:42:59.197Z,1022.36
2019-05-15T04:43:41.141Z,1022.35
2019-05-15T04:44:19.351Z,1022.37
2019-05-15T04:44:59.680Z,1022.4
2019-05-15T04:45:39.990Z,1022.35
2019-05-15T04:46:20.535Z,1022.37
2019-05-15T04:47:01.125Z,1022.37
2019-05-15T04:47:41.673Z,1022.36
2019-05-15T04:48:22.232Z,1022.35
2019-05-15T04:49:02.812Z,1022.42
2019-05-15T04:49:43.390Z,1022.39
2019-05-15T04:50:23.975Z,1022.41
2019-05-15T04:51:04.551Z,1022.38
2019-05-15T04:51:45.114Z,1022.43
2019-05-15T04:52:25.672Z,1022.4
2019-05-15T04:53:09.995Z,1022.42
2019-05-15T04:53:49.887Z,1022.44
2019-05-15T04:54:28.817Z,1022.41
2019-05-15T04:55:10.052Z,1022.42
2019-05-15T04:55:49.229Z,1022.43
2019-05-15T04:56:29.375Z,1022.42
2019-05-15T04:57:09.656Z,1022.36
2019-05-15T04:57:50.368Z,1022.36
2019-05-15T04:58:30.792Z,1022.4
2019-05-15T04:59:11.402Z,1022.38
2019-05-15T04:59:51.970Z,1022.32
2019-05-15T05:00:32.568Z,1022.41
2019-05-15T05:01:13.157Z,1022.4
2019-05-15T05:02:11.582Z,1022.38
2019-05-15T05:02:34.297Z,1022.34
2019-05-15T05:03:14.860Z,1022.41
2019-05-15T05:03:55.416Z,1022.37
2019-05-15T05:04:38.486Z,1022.36
2019-05-15T05:05:18.903Z,1022.34
2019-05-15T05:05:59.052Z,1022.37
2019-05-15T05:06:38.661Z,1022.35
2019-05-15T05:07:18.932Z,1022.38
2019-05-15T05:07:59.650Z,1022.41
2019-05-15T05:08:40.167Z,1022.4
2019-05-15T05:09:20.194Z,1022.39
2019-05-15T05:10:00.756Z,1022.38
2019-05-15T05:10:41.305Z,1022.36
2019-05-15T05:11:23.961Z,1022.41
2019-05-15T05:12:02.439Z,1022.4
2019-05-15T05:12:43.022Z,1022.46
2019-05-15T05:13:23.618Z,1022.36
2019-05-15T05:14:04.182Z,1022.35
2019-05-15T05:14:44.769Z,1022.37
2019-05-15T05:15:25.310Z,1022.36
2019-05-15T05:16:05.881Z,1022.32
2019-05-15T05:16:48.830Z,1022.34
2019-05-15T05:17:28.804Z,1022.35
2019-05-15T05:18:09.612Z,1022.39
2019-05-15T05:18:48.766Z,1022.36
2019-05-15T05:19:28.998Z,1022.33
2019-05-15T05:20:09.623Z,1022.29
2019-05-15T05:20:50.228Z,1022.36
2019-05-15T05:21:30.902Z,1022.33
2019-05-15T05:22:11.486Z,1022.37
2019-05-15T05:22:52.068Z,1022.34
2019-05-15T05:23:32.651Z,1022.36
2019-05-15T05:24:13.217Z,1022.35
2019-05-15T05:24:53.781Z,1022.36
2019-05-15T05:25:34.337Z,1022.33
2019-05-15T05:26:14.901Z,1022.38
2019-05-15T05:26:57.708Z,1022.42
2019-05-15T05:27:38.198Z,1022.37
2019-05-15T05:28:18.059Z,1022.4
2019-05-15T05:29:01.303Z,1022.37
2019-05-15T05:29:38.584Z,1022.38
2019-05-15T05:30:18.983Z,1022.38
2019-05-15T05:30:59.024Z,1022.43
2019-05-15T05:31:39.442Z,1022.42
2019-05-15T05:32:30.731Z,1022.4
2019-05-15T05:33:00.650Z,1022.37
2019-05-15T05:33:41.211Z,1022.4
2019-05-15T05:34:21.769Z,1022.37
2019-05-15T05:35:02.348Z,1022.4
2019-05-15T05:35:42.941Z,1022.36
2019-05-15T05:36:23.514Z,1022.35
2019-05-15T05:37:04.069Z,1022.37
2019-05-15T05:37:44.608Z,1022.32
2019-05-15T05:38:25.266Z,1022.32
2019-05-15T05:39:05.864Z,1022.35
2019-05-15T05:39:48.314Z,1022.37
2019-05-15T05:40:29.286Z,1022.38
2019-05-15T05:41:08.221Z,1022.34
2019-05-15T05:41:48.751Z,1022.35
2019-05-15T05:42:29.156Z,1022.35
2019-05-15T05:43:09.609Z,1022.37
2019-05-15T05:43:50.011Z,1022.39
2019-05-15T05:44:30.581Z,1022.41
2019-05-15T05:45:11.149Z,1022.43
2019-05-15T05:45:51.707Z,1022.38
2019-05-15T05:46:32.262Z,1022.41
2019-05-15T05:47:12.859Z,1022.42
2019-05-15T05:47:53.425Z,1022.44
2019-05-15T05:48:33.998Z,1022.35
2019-05-15T05:49:14.551Z,1022.39
2019-05-15T05:49:55.108Z,1022.4
2019-05-15T05:50:38.326Z,1022.41
2019-05-15T05:51:18.830Z,1022.42
2019-05-15T05:51:58.710Z,1022.41
2019-05-15T05:52:38.945Z,1022.37
2019-05-15T05:53:20.805Z,1022.4
2019-05-15T05:53:59.028Z,1022.39
2019-05-15T05:54:39.360Z,1022.43
2019-05-15T05:55:19.919Z,1022.38
2019-05-15T05:56:00.481Z,1022.34
2019-05-15T05:56:41.056Z,1022.42
2019-05-15T05:57:21.602Z,1022.41
2019-05-15T05:58:02.159Z,1022.31
2019-05-15T05:58:42.736Z,1022.37
2019-05-15T05:59:23.295Z,1022.36
2019-05-15T06:00:04.058Z,1022.41
2019-05-15T06:00:44.614Z,1022.37
2019-05-15T06:01:25.181Z,1022.39
2019-05-15T06:02:07.996Z,1022.32
2019-05-15T06:02:48.650Z,1022.35
2019-05-15T06:03:28.027Z,1022.36
2019-05-15T06:04:07.837Z,1022.37
2019-05-15T06:04:48.066Z,1022.32
2019-05-15T06:05:28.582Z,1022.38
2019-05-15T06:06:09.908Z,1022.29
2019-05-15T06:07:05.876Z,1022.34
2019-05-15T06:07:30.355Z,1022.32
2019-05-15T06:08:10.924Z,1022.33
2019-05-15T06:08:51.495Z,1022.35
2019-05-15T06:09:32.053Z,1022.35
2019-05-15T06:10:12.651Z,1022.35
2019-05-15T06:10:53.192Z,1022.35
2019-05-15T06:11:33.763Z,1022.39
2019-05-15T06:12:14.401Z,1022.36
2019-05-15T06:12:54.938Z,1022.37
2019-05-15T06:13:35.538Z,1022.29
2019-05-15T06:14:18.211Z,1022.39
2019-05-15T06:16:28.996Z,1022.36
2019-05-15T06:17:09.632Z,1022.33
2019-05-15T06:17:50.187Z,1022.29
2019-05-15T06:18:30.817Z,1022.41
2019-05-15T06:19:11.367Z,1022.35
2019-05-15T06:19:51.942Z,1022.44
2019-05-15T06:20:32.521Z,1022.37
2019-05-15T06:21:13.106Z,1022.36
2019-05-15T06:21:57.475Z,1022.38
2019-05-15T06:22:34.254Z,1022.4
2019-05-15T06:23:14.834Z,1022.37
2019-05-15T06:23:57.579Z,1022.41
2019-05-15T06:24:37.898Z,1022.43
2019-05-15T06:25:19.731Z,1022.39
2019-05-15T06:25:59.187Z,1022.42
2019-05-15T06:26:38.561Z,1022.38
2019-05-15T06:27:19.946Z,1022.43
2019-05-15T06:27:58.857Z,1022.39
2019-05-15T06:28:39.743Z,1022.37
2019-05-15T06:29:20.019Z,1022.35
2019-05-15T06:30:00.624Z,1022.37
2019-05-15T06:30:41.194Z,1022.43
2019-05-15T06:31:21.784Z,1022.4
2019-05-15T06:32:02.354Z,1022.41
2019-05-15T06:32:42.918Z,1022.4
2019-05-15T06:33:23.522Z,1022.36
2019-05-15T06:34:04.101Z,1022.37
2019-05-15T06:34:44.711Z,1022.43
2019-05-15T06:35:25.295Z,1022.39
2019-05-15T06:36:08.635Z,1022.39
2019-05-15T06:36:48.385Z,1022.42
2019-05-15T06:37:28.646Z,1022.37
2019-05-15T06:38:08.501Z,1022.38
2019-05-15T06:38:48.512Z,1022.35
2019-05-15T06:39:28.769Z,1022.4
2019-05-15T06:40:09.348Z,1022.33
2019-05-15T06:40:49.984Z,1022.46
2019-05-15T06:41:33.794Z,1022.47
2019-05-15T06:42:11.204Z,1022.49
2019-05-15T06:42:51.777Z,1022.52
2019-05-15T06:43:32.358Z,1022.5
2019-05-15T06:44:12.931Z,1022.49
2019-05-15T06:44:53.481Z,1022.47
2019-05-15T06:45:34.074Z,1022.53
2019-05-15T06:46:14.702Z,1022.53
2019-05-15T06:46:55.259Z,1022.53
2019-05-15T06:47:35.795Z,1022.58
2019-05-15T06:48:18.300Z,1022.54
2019-05-15T06:48:58.053Z,1022.57
2019-05-15T06:49:37.855Z,1022.57
2019-05-15T06:50:18.166Z,1022.6
2019-05-15T06:50:58.745Z,1022.57
2019-05-15T06:51:39.331Z,1022.51
2019-05-15T06:52:19.897Z,1022.52
2019-05-15T06:53:00.475Z,1022.53
2019-05-15T06:53:41.059Z,1022.64
2019-05-15T06:54:21.656Z,1022.65
2019-05-15T06:55:02.270Z,1022.57
2019-05-15T06:55:42.846Z,1022.57
2019-05-15T06:56:23.439Z,1022.66
2019-05-15T06:57:04.049Z,1022.59
2019-05-15T06:57:44.650Z,1022.65
2019-05-15T06:58:25.422Z,1022.6
2019-05-15T06:59:05.889Z,1022.61
2019-05-15T06:59:48.378Z,1022.63
2019-05-15T07:00:28.323Z,1022.58
2019-05-15T07:01:08.664Z,1022.62
2019-05-15T07:01:48.291Z,1022.54
2019-05-15T07:02:28.802Z,1022.49
2019-05-15T07:03:17.838Z,1022.53
2019-05-15T07:03:49.967Z,1022.48
2019-05-15T07:04:30.551Z,1022.45
2019-05-15T07:05:11.114Z,1022.41
2019-05-15T07:05:51.691Z,1022.43
2019-05-15T07:06:32.267Z,1022.39
2019-05-15T07:07:12.873Z,1022.36
2019-05-15T07:07:53.457Z,1022.33
2019-05-15T07:08:34.097Z,1022.35
2019-05-15T07:09:14.666Z,1022.35
2019-05-15T07:09:55.286Z,1022.31
2019-05-15T07:10:37.733Z,1022.4
2019-05-15T07:11:18.901Z,1022.26
2019-05-15T07:11:59.009Z,1022.28
2019-05-15T07:12:39.055Z,1022.29
2019-05-15T07:13:18.568Z,1022.25
2019-05-15T07:13:59.005Z,1022.34
2019-05-15T07:14:39.577Z,1022.22
2019-05-15T07:15:20.145Z,1022.17
2019-05-15T07:16:00.699Z,1022.18
2019-05-15T07:16:41.308Z,1022.3
2019-05-15T07:17:21.925Z,1022.38
2019-05-15T07:18:02.498Z,1022.2
2019-05-15T07:18:43.095Z,1022.3
2019-05-15T07:19:23.694Z,1022.18
2019-05-15T07:20:04.279Z,1022.21
2019-05-15T07:20:44.937Z,1022.19
2019-05-15T07:23:58.870Z,1022.19
2019-05-15T07:24:39.454Z,1022.18
2019-05-15T07:25:20.023Z,1022.23
2019-05-15T07:26:00.656Z,1022.16
2019-05-15T07:26:41.262Z,1022.11
2019-05-15T07:27:21.851Z,1022.07
2019-05-15T07:28:02.398Z,1022.2
2019-05-15T07:28:42.983Z,1022.13
2019-05-15T07:29:23.538Z,1022.08
2019-05-15T07:31:38.354Z,1022.15
2019-05-15T07:32:19.155Z,1022.17
2019-05-15T07:32:58.164Z,1022.16
2019-05-15T07:33:43.099Z,1022.14
2019-05-15T07:34:18.837Z,1022.2
2019-05-15T07:34:59.194Z,1022.14
2019-05-15T07:35:39.747Z,1022.21
2019-05-15T07:36:20.336Z,1022.2
2019-05-15T07:37:00.882Z,1022.14
2019-05-15T07:37:41.456Z,1022.07
2019-05-15T07:38:22.006Z,1022.12
2019-05-15T07:39:02.576Z,1022.14
2019-05-15T07:39:43.186Z,1022.07
2019-05-15T07:40:23.745Z,1022.12
2019-05-15T07:41:04.653Z,1022.07
2019-05-15T07:41:44.863Z,1022.13
2019-05-15T07:42:25.417Z,1022.04
2019-05-15T07:43:09.085Z,1022.04
2019-05-15T07:43:49.183Z,1022.12
2019-05-15T07:44:28.166Z,1022
2019-05-15T07:45:08.296Z,1022.12
2019-05-15T07:45:53.551Z,1022.1
2019-05-15T07:46:29.047Z,1022.08
2019-05-15T07:47:09.612Z,1022.19
2019-05-15T07:47:50.229Z,1022.12
2019-05-15T07:48:30.865Z,1022.12
2019-05-15T07:49:11.464Z,1022.22
2019-05-15T07:49:52.011Z,1022.19
2019-05-15T07:50:32.551Z,1022.2
2019-05-15T07:51:13.113Z,1022.19
2019-05-15T07:51:53.687Z,1022.16
2019-05-15T07:52:34.255Z,1022.23
2019-05-15T07:53:14.856Z,1022.21
2019-05-15T07:53:58.138Z,1022.21
2019-05-15T07:54:38.139Z,1022.19
2019-05-15T07:55:18.435Z,1022.3
2019-05-15T07:56:00.973Z,1022.24
2019-05-15T07:56:38.107Z,1022.09
2019-05-15T07:57:19.286Z,1022.15
2019-05-15T07:57:59.224Z,1022.19
2019-05-15T07:58:39.596Z,1022.14
2019-05-15T07:59:20.204Z,1022.15
2019-05-15T08:00:00.794Z,1022.26
2019-05-15T08:00:41.408Z,1022.12
2019-05-15T08:01:21.990Z,1022.17
2019-05-15T08:02:02.550Z,1022.15
2019-05-15T08:02:43.121Z,1022.18
2019-05-15T08:03:23.708Z,1022.13
2019-05-15T08:04:22.499Z,1022.17
2019-05-15T08:04:44.860Z,1022.2
2019-05-15T08:05:25.438Z,1022.17
2019-05-15T08:06:08.579Z,1022.15
2019-05-15T08:06:48.879Z,1022.21
2019-05-15T08:07:27.845Z,1022.22
2019-05-15T08:08:08.786Z,1022.17
2019-05-15T08:08:48.694Z,1022.19
2019-05-15T08:09:28.850Z,1022.09
2019-05-15T08:10:09.408Z,1022.18
2019-05-15T08:10:49.983Z,1022.17
2019-05-15T08:11:30.555Z,1022.19
2019-05-15T08:12:11.121Z,1022.13
2019-05-15T08:12:51.724Z,1022.14
2019-05-15T08:13:32.294Z,1022.14
2019-05-15T08:14:12.870Z,1022.18
2019-05-15T08:14:53.454Z,1022.21
2019-05-15T08:15:34.041Z,1022.09
2019-05-15T08:16:14.622Z,1022.12
2019-05-15T08:16:55.193Z,1022.16
2019-05-15T08:17:35.806Z,1022.16
2019-05-15T08:18:17.961Z,1022.19
2019-05-15T08:18:57.819Z,1022.15
2019-05-15T08:19:38.330Z,1022.18
2019-05-15T08:20:18.415Z,1022.16
2019-05-15T08:20:58.854Z,1022.14